Time;durP1;ratioP1;P1;durP2;ratioP2;P2;SDS_P1;SDS_P2;PMS_P1;PMS_P2;Temp;Humidity;BMP_temperature;BMP_pressure;BME280_temperature;BME280_humidity;BME280_pressure;Samples;Min_cycle;Max_cycle;Signal;HPM_P1;HPM_P2
2021/05/29 00:01:45;;;;;;;;;8.50;8.50;;;;;19.57;46.91;101564.94;5084166;27;45456;-77
2021/05/29 00:04:11;;;;;;;;;12.50;11.25;;;;;19.55;46.83;101561.41;5102066;27;48350;-77
2021/05/29 00:06:36;;;;;;;;;14.50;10.25;;;;;19.51;47.03;101565.19;5088697;27;45539;-77
2021/05/29 00:09:02;;;;;;;;;12.25;12.25;;;;;19.47;47.45;101563.56;5078867;27;45901;-76
2021/05/29 00:11:27;;;;;;;;;10.50;10.00;;;;;19.45;47.22;101562.78;5085146;27;47419;-75
2021/05/29 00:13:53;;;;;;;;;11.25;11.25;;;;;19.43;47.30;101564.63;5084684;27;47417;-75
2021/05/29 00:16:18;;;;;;;;;12.50;12.50;;;;;19.38;47.03;101558.59;5087530;27;45471;-75
2021/05/29 00:18:44;;;;;;;;;10.75;10.75;;;;;19.39;47.17;101555.84;5078144;27;46124;-76
2021/05/29 00:21:09;;;;;;;;;11.25;10.75;;;;;19.38;47.63;101561.28;5102357;27;46059;-76
2021/05/29 00:23:36;;;;;;;;;10.75;10.00;;;;;19.35;47.23;101556.06;5089136;27;47578;-76
2021/05/29 00:26:02;;;;;;;;;10.00;9.00;;;;;19.31;47.69;101557.09;5085255;27;45453;-76
2021/05/29 00:28:27;;;;;;;;;9.50;9.50;;;;;19.26;47.83;101557.31;5081811;27;46065;-78
2021/05/29 00:30:53;;;;;;;;;9.50;9.50;;;;;19.20;47.73;101560.31;5085423;27;45966;-76
2021/05/29 00:33:18;;;;;;;;;12.75;12.75;;;;;19.15;48.06;101559.63;5105213;27;45520;-76
2021/05/29 00:35:43;;;;;;;;;10.25;9.75;;;;;19.14;47.92;101571.31;5079371;27;46118;-76
2021/05/29 00:38:09;;;;;;;;;13.50;12.00;;;;;19.13;48.33;101564.19;5075704;27;45413;-77
2021/05/29 00:40:36;;;;;;;;;10.75;10.75;;;;;19.10;48.36;101567.91;5098682;27;45581;-76
2021/05/29 00:43:03;;;;;;;;;12.75;12.25;;;;;19.07;48.32;101564.47;5102745;27;47627;-76
2021/05/29 00:45:29;;;;;;;;;12.00;11.25;;;;;19.05;48.36;101558.25;5077276;27;45577;-77
2021/05/29 00:47:56;;;;;;;;;10.00;10.00;;;;;19.03;48.49;101563.72;5090165;27;45461;-78
2021/05/29 00:50:21;;;;;;;;;8.50;8.50;;;;;19.04;48.48;101562.75;5085827;27;45812;-77
2021/05/29 00:52:47;;;;;;;;;11.00;10.25;;;;;19.05;48.56;101560.94;5077748;27;47185;-76
2021/05/29 00:55:15;;;;;;;;;7.25;7.25;;;;;19.01;48.55;101551.28;5083334;27;45948;-75
2021/05/29 00:57:44;;;;;;;;;11.25;11.00;;;;;19.03;48.57;101560.16;5079026;27;45483;-76
2021/05/29 01:00:11;;;;;;;;;11.00;9.25;;;;;19.00;48.83;101552.22;5090672;27;45558;-78
2021/05/29 01:02:37;;;;;;;;;11.75;11.25;;;;;18.94;48.66;101556.06;5086607;27;48365;-76
2021/05/29 01:05:07;;;;;;;;;10.25;9.25;;;;;18.94;48.99;101550.69;5083521;27;45416;-76
2021/05/29 01:07:33;;;;;;;;;14.25;13.50;;;;;18.89;49.21;101558.06;5089640;27;46316;-77
2021/05/29 01:09:58;;;;;;;;;11.75;11.25;;;;;18.87;48.80;101551.00;5089780;27;49496;-77
2021/05/29 01:12:23;;;;;;;;;12.25;12.00;;;;;18.86;48.93;101550.13;5078147;27;48021;-78
2021/05/29 01:14:55;;;;;;;;;15.00;15.00;;;;;18.84;49.32;101552.00;5088687;27;45827;-77
2021/05/29 01:17:22;;;;;;;;;10.75;10.75;;;;;18.84;49.27;101551.13;5076650;27;46402;-76
2021/05/29 01:19:47;;;;;;;;;13.75;13.00;;;;;18.85;49.24;101552.88;5083243;27;45684;-75
2021/05/29 01:22:13;;;;;;;;;13.50;12.00;;;;;18.84;49.32;101554.69;5089353;27;48219;-77
2021/05/29 01:24:39;;;;;;;;;10.75;10.75;;;;;18.83;49.25;101550.25;5078896;27;46323;-77
2021/05/29 01:27:06;;;;;;;;;13.25;12.00;;;;;18.84;48.86;101551.13;5086215;27;45522;-77
2021/05/29 01:29:33;;;;;;;;;11.00;10.25;;;;;18.85;49.34;101558.25;5085852;27;45560;-76
2021/05/29 01:32:02;;;;;;;;;11.25;11.25;;;;;18.84;49.17;101557.38;5089945;27;48292;-76
2021/05/29 01:34:33;;;;;;;;;13.50;12.25;;;;;18.85;49.30;101560.94;5091782;27;45475;-76
2021/05/29 01:37:03;;;;;;;;;11.00;11.00;;;;;18.83;49.50;101563.72;5090237;27;45391;-76
2021/05/29 01:39:30;;;;;;;;;12.50;12.50;;;;;18.81;49.15;101562.91;5082589;27;45641;-74
2021/05/29 01:41:57;;;;;;;;;11.50;11.00;;;;;18.80;49.57;101559.34;5087763;27;46587;-76
2021/05/29 01:44:23;;;;;;;;;13.25;13.25;;;;;18.76;49.65;101562.19;5075653;27;45429;-76
2021/05/29 01:46:50;;;;;;;;;15.25;13.50;;;;;18.75;49.80;101558.66;5086311;27;45530;-75
2021/05/29 01:49:16;;;;;;;;;12.50;12.50;;;;;18.75;49.96;101565.84;5075129;27;45918;-73
2021/05/29 01:51:41;;;;;;;;;14.25;14.25;;;;;18.75;49.44;101557.78;5078884;27;47880;-75
2021/05/29 01:54:06;;;;;;;;;16.00;13.00;;;;;18.76;49.55;101562.19;5090162;27;45533;-75
2021/05/29 01:56:32;;;;;;;;;12.50;12.50;;;;;18.73;49.52;101560.53;5083379;27;45437;-75
2021/05/29 01:58:57;;;;;;;;;13.50;12.25;;;;;18.73;49.75;101562.34;5078315;27;45432;-74
2021/05/29 02:01:23;;;;;;;;;14.00;13.00;;;;;18.73;49.73;101568.59;5091594;27;48189;-75
2021/05/29 02:03:48;;;;;;;;;15.75;12.75;;;;;18.70;50.06;101560.66;5092143;27;45458;-74
2021/05/29 02:06:15;;;;;;;;;12.75;11.75;;;;;18.68;50.32;101559.84;5087124;27;45387;-75
2021/05/29 02:08:41;;;;;;;;;16.50;13.75;;;;;18.62;49.72;101568.13;5090696;27;45297;-74
2021/05/29 02:11:06;;;;;;;;;13.75;13.75;;;;;18.59;50.21;101562.00;5094517;27;48245;-74
2021/05/29 02:13:43;;;;;;;;;15.50;15.50;;;;;18.54;50.33;101555.00;5091935;27;45390;-74
2021/05/29 02:16:10;;;;;;;;;12.50;12.50;;;;;18.51;50.13;101563.19;5085827;27;45999;-74
2021/05/29 02:18:39;;;;;;;;;10.50;10.50;;;;;18.50;50.33;101557.88;5078461;27;45551;-74
2021/05/29 02:21:08;;;;;;;;;12.00;12.00;;;;;18.47;50.31;101561.56;5091457;27;46747;-73
2021/05/29 02:23:36;;;;;;;;;12.00;11.50;;;;;18.43;50.64;101557.28;5079824;27;45443;-74
2021/05/29 02:26:07;;;;;;;;;13.75;12.50;;;;;18.43;50.69;101556.41;5084925;27;45531;-75
2021/05/29 02:28:34;;;;;;;;;14.50;14.50;;;;;18.40;51.00;101559.19;5080556;27;45701;-75
2021/05/29 02:31:00;;;;;;;;;14.00;14.00;;;;;18.31;50.93;101552.41;5085343;27;46275;-77
2021/05/29 02:33:26;;;;;;;;;11.75;11.25;;;;;18.32;50.56;101570.28;5085016;27;45493;-78
2021/05/29 02:35:53;;;;;;;;;12.75;12.75;;;;;18.32;51.30;101574.78;5088021;27;47260;-77
2021/05/29 02:38:19;;;;;;;;;19.00;14.50;;;;;18.29;50.91;101564.13;5089638;27;46274;-75
2021/05/29 02:40:44;;;;;;;;;11.50;10.50;;;;;18.27;51.29;101566.88;5086487;27;45975;-78
2021/05/29 02:43:10;;;;;;;;;14.00;14.00;;;;;18.25;51.59;101571.44;5086108;27;45511;-76
2021/05/29 02:45:38;;;;;;;;;17.25;16.00;;;;;18.24;51.38;101567.00;5091099;27;45608;-76
2021/05/29 02:48:04;;;;;;;;;18.25;17.25;;;;;18.18;51.40;101568.13;5086700;27;45579;-78
2021/05/29 02:50:30;;;;;;;;;18.00;16.00;;;;;18.16;51.66;101567.28;5087640;27;45563;-77
2021/05/29 02:52:55;;;;;;;;;15.75;15.75;;;;;18.14;51.51;101569.19;5103099;27;45831;-75
2021/05/29 02:55:24;;;;;;;;;16.25;15.25;;;;;18.08;51.39;101563.19;5087007;27;45548;-74
2021/05/29 02:57:51;;;;;;;;;15.25;15.25;;;;;18.12;51.75;101565.69;5083780;27;46536;-75
2021/05/29 03:00:18;;;;;;;;;14.75;13.00;;;;;18.11;51.89;101577.38;5084739;27;47628;-77
2021/05/29 03:02:43;;;;;;;;;17.75;17.75;;;;;18.09;51.96;101575.69;5090686;27;45542;-77
2021/05/29 03:05:09;;;;;;;;;14.25;14.00;;;;;18.05;51.58;101574.06;5091288;27;45528;-75
2021/05/29 03:07:35;;;;;;;;;17.25;16.00;;;;;18.02;52.03;101575.03;5087775;27;45661;-76
2021/05/29 03:10:02;;;;;;;;;18.25;16.25;;;;;18.03;51.92;101575.91;5084142;27;45574;-76
2021/05/29 03:12:28;;;;;;;;;17.25;15.50;;;;;18.00;51.92;101571.53;5085233;27;45618;-75
2021/05/29 03:14:53;;;;;;;;;17.25;16.00;;;;;18.01;51.90;101575.97;5088520;27;46607;-74
2021/05/29 03:17:19;;;;;;;;;17.75;16.25;;;;;18.04;51.59;101583.03;5084300;27;45463;-77
2021/05/29 03:19:44;;;;;;;;;16.75;16.50;;;;;18.03;52.28;101579.47;5086403;27;48328;-74
2021/05/29 03:22:10;;;;;;;;;17.50;16.25;;;;;18.03;52.07;101584.84;5087023;27;49056;-77
2021/05/29 03:24:35;;;;;;;;;19.00;18.75;;;;;18.02;52.19;101584.91;5088528;27;45357;-78
2021/05/29 03:27:00;;;;;;;;;15.00;12.50;;;;;18.01;52.08;101591.19;5086394;27;45519;-76
2021/05/29 03:29:26;;;;;;;;;16.50;15.75;;;;;17.99;52.18;101588.59;5084565;27;47569;-75
2021/05/29 03:31:51;;;;;;;;;19.25;19.25;;;;;17.99;52.03;101590.41;5084868;27;45334;-77
2021/05/29 03:34:17;;;;;;;;;17.75;17.75;;;;;17.99;52.42;101595.75;5088074;27;45304;-76
2021/05/29 03:36:42;;;;;;;;;18.25;16.00;;;;;17.95;52.54;101584.28;5084927;27;45819;-75
2021/05/29 03:39:08;;;;;;;;;19.50;19.00;;;;;17.94;52.15;101587.91;5081237;27;48431;-77
2021/05/29 03:41:33;;;;;;;;;17.75;15.75;;;;;17.91;52.34;101586.22;5083140;27;45482;-76
2021/05/29 03:44:00;;;;;;;;;18.00;18.00;;;;;17.90;52.53;101587.13;5087696;27;45467;-78
2021/05/29 03:46:26;;;;;;;;;17.00;17.00;;;;;17.88;52.81;101586.31;5084436;27;46392;-77
2021/05/29 03:48:51;;;;;;;;;17.75;15.50;;;;;17.83;52.30;101599.03;5085417;27;45649;-77
2021/05/29 03:51:16;;;;;;;;;18.50;18.50;;;;;17.77;52.59;101584.94;5081646;27;46210;-77
2021/05/29 03:53:42;;;;;;;;;17.75;16.75;;;;;17.77;52.86;101587.63;5086395;27;45430;-76
2021/05/29 03:56:07;;;;;;;;;21.00;17.75;;;;;17.77;52.43;101588.50;5082546;27;45699;-76
2021/05/29 03:58:33;;;;;;;;;21.25;18.25;;;;;17.76;52.71;101586.75;5091449;27;47876;-77
2021/05/29 04:00:59;;;;;;;;;15.50;13.25;;;;;17.75;53.13;101592.19;5085404;27;45601;-76
2021/05/29 04:03:25;;;;;;;;;19.50;18.00;;;;;17.74;53.01;101601.19;5082830;27;45588;-77
2021/05/29 04:05:51;;;;;;;;;15.25;14.50;;;;;17.73;52.96;101599.44;5083352;27;46592;-76
2021/05/29 04:08:16;;;;;;;;;18.50;17.25;;;;;17.71;53.28;101598.63;5080182;27;47366;-76
2021/05/29 04:10:42;;;;;;;;;18.00;18.00;;;;;17.66;53.14;101596.09;5083195;27;45558;-77
2021/05/29 04:13:07;;;;;;;;;24.00;20.25;;;;;17.63;53.10;101605.09;5078499;27;45330;-77
2021/05/29 04:15:32;;;;;;;;;21.50;18.50;;;;;17.63;53.32;101606.91;5082753;27;45681;-77
2021/05/29 04:17:58;;;;;;;;;18.25;16.75;;;;;17.60;53.17;101615.09;5084495;27;47229;-76
2021/05/29 04:20:25;;;;;;;;;20.50;19.50;;;;;17.58;53.43;101617.84;5084704;27;45565;-76
2021/05/29 04:22:52;;;;;;;;;16.25;15.75;;;;;17.58;53.62;101616.97;5086426;27;45552;-76
2021/05/29 04:25:24;;;;;;;;;18.50;18.25;;;;;17.56;53.48;101617.00;5079934;27;45646;-77
2021/05/29 04:27:50;;;;;;;;;19.75;18.75;;;;;17.54;53.59;101615.31;5078915;27;46138;-74
2021/05/29 04:30:20;;;;;;;;;19.00;18.25;;;;;17.53;53.32;101614.44;5091588;27;45516;-75
2021/05/29 04:32:46;;;;;;;;;19.25;18.50;;;;;17.52;53.81;101609.09;5082688;27;45511;-77
2021/05/29 04:35:12;;;;;;;;;20.50;19.00;;;;;17.50;53.60;101605.63;5079414;27;45427;-76
2021/05/29 04:37:38;;;;;;;;;23.50;21.25;;;;;17.46;53.85;101607.53;5096828;27;45487;-75
2021/05/29 04:40:06;;;;;;;;;22.50;18.75;;;;;17.45;53.85;101610.28;5098502;27;45575;-78
2021/05/29 04:42:32;;;;;;;;;22.25;20.50;;;;;17.42;54.11;101610.41;5077637;27;45298;-77
2021/05/29 04:44:57;;;;;;;;;25.75;19.25;;;;;17.41;53.87;101611.34;5077788;27;45441;-75
2021/05/29 04:47:22;;;;;;;;;20.50;18.00;;;;;17.43;53.60;101617.50;5096090;27;48424;-77
2021/05/29 04:49:48;;;;;;;;;25.25;20.75;;;;;17.46;53.69;101622.75;5092292;27;45447;-74
2021/05/29 04:52:13;;;;;;;;;19.00;19.00;;;;;17.48;53.83;101627.13;5079228;27;45502;-74
2021/05/29 04:54:39;;;;;;;;;24.25;22.25;;;;;17.49;54.18;101622.66;5087928;27;45624;-77
2021/05/29 04:57:05;;;;;;;;;21.75;18.75;;;;;17.45;53.84;101621.88;5100289;27;48274;-74
2021/05/29 04:59:31;;;;;;;;;21.00;20.50;;;;;17.44;54.56;101627.31;5095604;27;45464;-74
2021/05/29 05:01:56;;;;;;;;;25.00;23.00;;;;;17.44;54.29;101622.81;5095074;27;45335;-75
2021/05/29 05:04:22;;;;;;;;;17.50;16.75;;;;;17.45;53.79;101623.69;5096066;27;45586;-74
2021/05/29 05:06:47;;;;;;;;;18.50;18.50;;;;;17.47;53.87;101629.88;5096187;27;47416;-76
2021/05/29 05:09:13;;;;;;;;;23.50;23.00;;;;;17.49;54.29;101636.06;5095449;27;45785;-76
2021/05/29 05:11:38;;;;;;;;;22.50;21.00;;;;;17.50;53.87;101632.44;5095598;27;45345;-76
2021/05/29 05:14:04;;;;;;;;;20.50;20.25;;;;;17.51;54.22;101634.19;5093642;27;45531;-76
2021/05/29 05:16:30;;;;;;;;;24.75;23.00;;;;;17.50;54.03;101641.38;5089111;27;45448;-75
2021/05/29 05:18:55;;;;;;;;;28.00;26.00;;;;;17.51;53.71;101636.88;5083635;27;46423;-75
2021/05/29 05:21:21;;;;;;;;;25.75;22.25;;;;;17.51;53.96;101629.69;5095849;27;45843;-75
2021/05/29 05:23:50;;;;;;;;;22.50;22.50;;;;;17.48;54.18;101637.00;5095979;27;45569;-75
2021/05/29 05:26:16;;;;;;;;;27.25;23.75;;;;;17.46;54.42;101636.19;5095532;27;48118;-76
2021/05/29 05:28:42;;;;;;;;;25.00;22.75;;;;;17.44;54.29;101632.69;5095205;27;45390;-75
2021/05/29 05:31:07;;;;;;;;;26.25;26.00;;;;;17.46;54.18;101638.88;5088594;27;45743;-76
2021/05/29 05:33:38;;;;;;;;;26.75;26.25;;;;;17.44;54.33;101638.94;5096927;27;45419;-75
2021/05/29 05:36:07;;;;;;;;;25.25;24.25;;;;;17.45;54.47;101645.16;5092614;27;45756;-75
2021/05/29 05:38:32;;;;;;;;;25.25;23.75;;;;;17.46;54.00;101650.47;5094008;27;45831;-77
2021/05/29 05:40:58;;;;;;;;;23.75;22.25;;;;;17.50;54.71;101648.56;5088589;27;45286;-76
2021/05/29 05:43:23;;;;;;;;;24.25;21.50;;;;;17.50;54.72;101643.19;5100260;27;45445;-74
2021/05/29 05:45:49;;;;;;;;;25.50;25.00;;;;;17.56;53.91;101649.22;5092981;27;48891;-74
2021/05/29 05:48:15;;;;;;;;;24.75;23.50;;;;;17.58;54.31;101654.53;5093825;27;45314;-75
2021/05/29 05:50:52;;;;;;;;;25.50;25.00;;;;;17.59;54.12;101649.09;5094416;27;45442;-76
2021/05/29 05:53:18;;;;;;;;;24.75;24.50;;;;;17.68;54.19;101657.78;5091435;27;45348;-75
2021/05/29 05:55:43;;;;;;;;;27.25;22.00;;;;;17.73;53.94;101658.50;5084816;27;48307;-75
2021/05/29 05:58:09;;;;;;;;;21.25;21.25;;;;;17.77;53.73;101658.31;5105730;27;45477;-75
2021/05/29 06:00:34;;;;;;;;;25.50;25.50;;;;;17.81;54.02;101662.66;5095427;27;45526;-74
2021/05/29 06:03:00;;;;;;;;;25.25;23.25;;;;;17.87;54.16;101669.59;5095272;27;45580;-75
2021/05/29 06:05:25;;;;;;;;;25.50;25.25;;;;;17.92;53.64;101673.91;5096223;27;46458;-75
2021/05/29 06:07:51;;;;;;;;;27.25;24.50;;;;;17.98;53.58;101672.78;5097551;27;45428;-75
2021/05/29 06:10:18;;;;;;;;;22.00;21.00;;;;;18.03;53.84;101681.53;5092560;27;45383;-76
2021/05/29 06:12:47;;;;;;;;;22.00;21.00;;;;;18.07;53.49;101682.31;5095167;27;46389;-76
2021/05/29 06:18:03;;;;;;;;;21.00;19.25;;;;;18.15;53.49;101689.13;5085510;27;45499;-75
2021/05/29 06:20:29;;;;;;;;;24.25;24.25;;;;;18.20;53.46;101700.59;5092559;27;45490;-75
2021/05/29 06:22:54;;;;;;;;;23.00;22.50;;;;;18.21;53.43;101699.66;5091591;27;45475;-77
2021/05/29 06:25:26;;;;;;;;;22.25;21.75;;;;;18.24;53.81;101696.84;5095373;27;47206;-76
2021/05/29 06:27:51;;;;;;;;;24.00;22.50;;;;;18.29;53.65;101707.41;5094939;27;45432;-76
2021/05/29 06:30:17;;;;;;;;;21.75;20.25;;;;;18.31;53.36;101702.88;5094744;27;45665;-76
2021/05/29 06:32:42;;;;;;;;;25.00;23.75;;;;;18.32;53.30;101703.75;5094070;27;45388;-76
2021/05/29 06:35:08;;;;;;;;;60.50;48.00;;;;;18.37;53.09;101704.44;5094280;27;46180;-74
2021/05/29 06:37:36;;;;;;;;;39.00;34.75;;;;;18.41;52.99;101704.25;5093732;27;45361;-73
2021/05/29 06:40:04;;;;;;;;;24.50;24.50;;;;;18.47;52.70;101712.09;5084107;27;45522;-73
2021/05/29 06:42:30;;;;;;;;;25.75;24.75;;;;;18.51;52.60;101704.78;5093201;27;45574;-72
2021/05/29 06:44:55;;;;;;;;;20.25;17.75;;;;;18.57;52.51;101706.38;5084679;27;45408;-71
2021/05/29 06:47:20;;;;;;;;;26.50;24.75;;;;;18.58;52.63;101703.63;5092469;27;45282;-71
2021/05/29 06:49:46;;;;;;;;;20.75;20.75;;;;;18.67;52.45;101708.66;5096529;27;45342;-74
2021/05/29 06:52:17;;;;;;;;;24.75;22.75;;;;;18.72;52.15;101711.19;5094971;27;45454;-74
2021/05/29 06:59:58;;;;;;;;;20.25;18.75;;;;;18.93;51.77;101714.78;5095449;27;45353;-76
2021/05/29 07:02:24;;;;;;;;;20.25;20.25;;;;;18.99;52.11;101718.13;5094186;27;45495;-74
2021/05/29 07:04:51;;;;;;;;;21.00;21.00;;;;;19.05;51.62;101712.47;5090387;27;46770;-73
2021/05/29 07:07:17;;;;;;;;;22.00;21.75;;;;;19.10;51.35;101715.88;5090906;27;45463;-76
2021/05/29 07:09:42;;;;;;;;;20.00;20.00;;;;;19.20;51.17;101720.88;5093887;27;45424;-73
2021/05/29 07:12:08;;;;;;;;;19.50;19.50;;;;;19.27;51.24;101719.66;5088910;27;45460;-76
2021/05/29 07:14:33;;;;;;;;;18.50;18.00;;;;;19.34;50.51;101718.50;5089933;27;47338;-74
2021/05/29 07:17:01;;;;;;;;;14.00;14.00;;;;;19.41;50.35;101722.66;5091855;27;45932;-73
2021/05/29 07:19:27;;;;;;;;;17.25;15.50;;;;;19.46;49.94;101720.66;5083796;27;45631;-73
2021/05/29 07:21:52;;;;;;;;;13.75;13.75;;;;;19.51;49.76;101726.72;5089544;27;45626;-74
2021/05/29 07:24:19;;;;;;;;;15.00;15.00;;;;;19.56;50.06;101716.63;5088826;27;46141;-74
2021/05/29 07:26:45;;;;;;;;;17.25;17.25;;;;;19.62;49.36;101728.97;5077408;27;45498;-73
2021/05/29 07:29:11;;;;;;;;;16.25;15.25;;;;;19.66;49.81;101719.81;5085070;27;45487;-73
2021/05/29 07:31:37;;;;;;;;;18.00;18.00;;;;;19.71;49.49;101725.91;5082874;27;45390;-75
2021/05/29 07:34:03;;;;;;;;;20.25;19.50;;;;;19.76;49.12;101728.38;5097564;27;45642;-74
2021/05/29 07:36:28;;;;;;;;;16.75;16.00;;;;;19.79;49.19;101731.81;5083398;27;45345;-74
2021/05/29 07:38:53;;;;;;;;;14.50;13.75;;;;;19.82;49.26;101723.63;5082485;27;45754;-73
2021/05/29 07:41:20;;;;;;;;;18.00;17.25;;;;;19.87;48.73;101728.78;5081664;27;45487;-77
2021/05/29 07:43:46;;;;;;;;;15.25;15.25;;;;;19.91;48.33;101727.69;5077206;27;48536;-73
2021/05/29 07:46:11;;;;;;;;;15.75;15.75;;;;;19.94;48.64;101728.44;5093621;27;45792;-74
2021/05/29 07:48:38;;;;;;;;;16.00;15.50;;;;;19.98;48.04;101726.50;5092557;27;45505;-74
2021/05/29 07:51:04;;;;;;;;;15.50;15.50;;;;;20.02;48.26;101730.78;5092546;27;45348;-75
2021/05/29 07:53:35;;;;;;;;;16.50;15.00;;;;;20.05;47.73;101733.34;5091008;27;47754;-73
2021/05/29 07:56:03;;;;;;;;;13.75;13.75;;;;;20.07;47.57;101736.84;5083153;27;45479;-73
2021/05/29 07:58:29;;;;;;;;;17.50;14.50;;;;;20.08;47.37;101737.75;5087949;27;45372;-73
2021/05/29 08:00:55;;;;;;;;;15.25;12.75;;;;;20.12;47.66;101742.91;5093230;27;45761;-73
2021/05/29 08:03:23;;;;;;;;;16.25;14.50;;;;;20.16;47.25;101747.22;5080129;27;48216;-72
2021/05/29 08:05:51;;;;;;;;;15.50;14.75;;;;;20.16;47.03;101741.81;5095029;27;45367;-73
2021/05/29 08:08:17;;;;;;;;;11.75;11.25;;;;;20.20;46.84;101746.16;5077579;27;45423;-74
2021/05/29 08:10:45;;;;;;;;;15.00;15.00;;;;;20.23;47.00;101745.13;5087582;27;45323;-73
2021/05/29 08:13:10;;;;;;;;;15.00;12.50;;;;;20.24;46.15;101747.75;5081473;27;45439;-73
2021/05/29 08:15:36;;;;;;;;;10.25;8.75;;;;;20.27;46.44;101752.13;5079512;27;44852;-73
2021/05/29 08:18:01;;;;;;;;;12.00;12.00;;;;;20.27;45.93;101750.28;5090228;27;45312;-74
2021/05/29 08:20:27;;;;;;;;;11.00;10.25;;;;;20.31;46.28;101752.84;5083916;27;45729;-74
2021/05/29 08:22:52;;;;;;;;;13.25;12.00;;;;;20.37;46.40;101747.19;5081500;27;48466;-76
2021/05/29 08:25:18;;;;;;;;;10.25;9.75;;;;;20.40;45.84;101753.31;5089057;27;45541;-77
2021/05/29 08:27:44;;;;;;;;;8.75;8.75;;;;;20.46;46.07;101753.06;5092636;27;45901;-76
2021/05/29 08:30:10;;;;;;;;;8.50;7.50;;;;;20.51;45.05;101752.84;5092949;27;45456;-76
2021/05/29 08:32:36;;;;;;;;;7.25;7.25;;;;;20.54;44.72;101753.56;5080922;27;46528;-75
2021/05/29 08:35:04;;;;;;;;;8.00;6.00;;;;;20.57;44.60;101755.25;5096411;27;45348;-76
2021/05/29 08:37:30;;;;;;;;;5.00;5.00;;;;;20.63;44.42;101752.28;5096421;27;45325;-75
2021/05/29 08:39:55;;;;;;;;;4.00;4.00;;;;;20.68;44.00;101754.75;5094065;27;45356;-75
2021/05/29 08:42:21;;;;;;;;;5.00;4.75;;;;;20.72;43.65;101754.53;5091138;27;47553;-76
2021/05/29 08:44:46;;;;;;;;;7.00;6.00;;;;;20.77;44.40;101746.22;5092574;27;45504;-77
2021/05/29 08:47:12;;;;;;;;;6.50;6.00;;;;;20.83;43.69;101748.59;5096576;27;45729;-76
2021/05/29 08:49:37;;;;;;;;;5.50;4.00;;;;;20.86;43.35;101754.75;5090584;27;45881;-75
2021/05/29 08:52:03;;;;;;;;;3.25;3.25;;;;;20.91;42.67;101759.03;5099038;27;47288;-74
2021/05/29 08:54:30;;;;;;;;;4.00;4.00;;;;;20.90;42.49;101750.06;5079328;27;45593;-75
2021/05/29 08:56:56;;;;;;;;;5.00;5.00;;;;;20.93;41.01;101752.63;5096322;27;45514;-73
2021/05/29 08:59:21;;;;;;;;;3.75;3.75;;;;;20.96;40.72;101756.97;5092321;27;45548;-75
2021/05/29 09:01:47;;;;;;;;;3.00;3.00;;;;;20.96;41.11;101747.09;5092381;27;47584;-73
2021/05/29 09:04:12;;;;;;;;;2.75;2.75;;;;;21.00;41.78;101753.22;5096006;27;46370;-74
2021/05/29 09:06:44;;;;;;;;;2.75;2.75;;;;;21.02;40.48;101752.19;5094054;27;45431;-74
2021/05/29 09:09:13;;;;;;;;;3.25;3.25;;;;;21.05;41.50;101749.31;5082528;27;45626;-75
2021/05/29 09:11:50;;;;;;;;;3.00;3.00;;;;;21.08;39.93;101754.56;5085198;27;45458;-75
2021/05/29 09:14:22;;;;;;;;;3.00;3.00;;;;;21.11;39.30;101754.44;5076788;27;45455;-75
2021/05/29 09:17:18;;;;;;;;;4.00;4.00;;;;;21.14;39.54;101764.19;5078106;27;45326;-75
2021/05/29 09:20:09;;;;;;;;;3.25;3.25;;;;;21.20;40.34;101763.00;5094504;27;45598;-74
2021/05/29 09:22:54;;;;;;;;;5.00;5.00;;;;;21.25;39.88;101766.38;5076479;27;46177;-75
2021/05/29 09:25:24;;;;;;;;;5.00;5.00;;;;;21.29;39.60;101768.00;5082529;27;45756;-76
2021/05/29 09:27:58;;;;;;;;;4.00;4.00;;;;;21.35;40.12;101770.41;5095880;27;45447;-75
2021/05/29 09:30:48;;;;;;;;;5.00;5.00;;;;;21.43;39.85;101768.19;5081024;27;45272;-75
2021/05/29 09:33:22;;;;;;;;;3.50;3.50;;;;;21.49;40.17;101767.88;5089043;27;48354;-75
2021/05/29 09:36:06;;;;;;;;;5.00;3.67;;;;;21.56;39.77;101763.91;5107974;27;46201;-75
2021/05/29 09:38:43;;;;;;;;;5.00;4.25;;;;;21.60;39.34;101767.34;5085994;27;45370;-74
2021/05/29 09:41:31;;;;;;;;;4.50;4.50;;;;;21.61;39.04;101761.84;5091559;27;45494;-74
2021/05/29 09:44:07;;;;;;;;;4.75;4.75;;;;;21.64;38.35;101760.81;5076343;27;47624;-74
2021/05/29 09:46:54;;;;;;;;;4.25;4.25;;;;;21.67;39.22;101763.34;5085874;27;45488;-74
2021/05/29 09:49:20;;;;;;;;;3.67;3.67;;;;;21.69;39.18;101764.16;5091950;27;45455;-74
2021/05/29 09:51:45;;;;;;;;;4.00;4.00;;;;;21.70;38.77;101760.50;5099956;27;45368;-76
2021/05/29 09:54:11;;;;;;;;;3.67;3.67;;;;;21.70;38.65;101761.38;5085655;27;47191;-76
2021/05/29 09:56:43;;;;;;;;;5.67;4.00;;;;;21.71;38.81;101765.81;5097452;27;45420;-75
2021/05/29 09:59:10;;;;;;;;;4.00;4.00;;;;;21.73;38.47;101768.47;5082966;27;45356;-75
2021/05/29 10:01:37;;;;;;;;;3.00;3.00;;;;;21.70;38.21;101774.88;5083289;27;45435;-74
2021/05/29 10:04:04;;;;;;;;;5.33;5.33;;;;;21.67;37.97;101769.63;5095134;27;47788;-74
2021/05/29 10:06:29;;;;;;;;;4.33;4.33;;;;;21.65;38.39;101776.06;5095444;27;45460;-75
2021/05/29 10:08:55;;;;;;;;;7.25;7.25;;;;;21.62;38.51;101785.22;5087048;27;45493;-75
2021/05/29 10:11:21;;;;;;;;;4.33;4.33;;;;;21.59;38.81;101771.84;5091070;27;45531;-75
2021/05/29 10:13:46;;;;;;;;;4.00;3.33;;;;;21.57;38.04;101768.34;5084123;27;48251;-76
2021/05/29 10:16:14;;;;;;;;;4.67;3.67;;;;;21.55;38.05;101764.84;5082450;27;45512;-75
2021/05/29 10:18:42;;;;;;;;;7.00;5.33;;;;;21.55;38.41;101762.16;5090597;27;45430;-75
2021/05/29 10:21:09;;;;;;;;;4.00;4.00;;;;;21.55;38.52;101763.97;5094000;27;45520;-75
2021/05/29 10:23:36;;;;;;;;;6.00;6.00;;;;;21.56;38.29;101761.19;5082192;27;48878;-73
2021/05/29 10:26:02;;;;;;;;;4.33;4.33;;;;;21.55;37.83;101766.69;5092472;27;45338;-74
2021/05/29 10:28:30;;;;;;;;;4.67;4.67;;;;;21.55;37.55;101769.38;5091217;27;45436;-76
2021/05/29 10:30:56;;;;;;;;;5.00;5.00;;;;;21.52;38.00;101775.81;5078927;27;45527;-74
2021/05/29 10:33:23;;;;;;;;;5.67;5.67;;;;;21.57;37.89;101773.75;5091915;27;48066;-73
2021/05/29 10:35:49;;;;;;;;;3.00;3.00;;;;;21.61;37.81;101783.47;5089146;27;45567;-73
2021/05/29 10:38:15;;;;;;;;;5.33;5.33;;;;;21.63;38.31;101765.34;5074512;27;45500;-72
2021/05/29 10:40:48;;;;;;;;;7.00;6.00;;;;;21.67;37.79;101772.34;5094721;27;45617;-72
2021/05/29 10:43:19;;;;;;;;;3.00;3.00;;;;;21.72;38.09;101780.19;5086495;27;45305;-72
2021/05/29 10:45:50;;;;;;;;;5.00;5.00;;;;;21.73;37.68;101771.16;5078480;27;45383;-73
2021/05/29 10:48:21;;;;;;;;;5.33;5.00;;;;;21.81;37.72;101784.25;5091297;27;45422;-72
2021/05/29 10:53:43;;;;;;;;;5.00;5.00;;;;;21.88;37.16;101783.88;5091240;27;46614;-70
2021/05/29 10:56:15;;;;;;;;;4.00;4.00;;;;;21.91;37.35;101783.72;5087109;27;45467;-73
2021/05/29 10:59:15;;;;;;;;;3.67;3.67;;;;;21.92;37.59;101773.78;5090066;27;48557;-73
2021/05/29 11:01:44;;;;;;;;;6.00;6.00;;;;;21.92;36.90;101774.66;5075965;27;45548;-75
2021/05/29 11:04:16;;;;;;;;;4.67;4.67;;;;;21.94;37.16;101769.16;5078647;27;46758;-72
2021/05/29 11:06:47;;;;;;;;;5.33;5.33;;;;;21.93;37.40;101773.69;5082761;27;45802;-72
2021/05/29 11:09:14;;;;;;;;;6.00;5.00;;;;;21.93;37.04;101781.78;5077438;27;45352;-75
2021/05/29 11:11:47;;;;;;;;;6.00;6.00;;;;;21.91;37.34;101764.78;5106361;27;45399;-73
2021/05/29 11:14:27;;;;;;;;;6.50;6.50;;;;;21.94;37.54;101782.66;5090583;27;47690;-71
2021/05/29 11:16:53;;;;;;;;;6.75;6.75;;;;;21.95;37.34;101771.78;5077895;27;45440;-71
2021/05/29 11:19:22;;;;;;;;;5.00;5.00;;;;;21.99;37.86;101781.50;5082489;27;45428;-70
2021/05/29 11:22:12;;;;;;;;;4.00;4.00;;;;;22.02;36.88;101766.94;5092132;27;45600;-71
2021/05/29 11:24:43;;;;;;;;;6.00;5.00;;;;;22.05;37.39;101769.47;5091998;27;47406;-72
2021/05/29 11:27:33;;;;;;;;;6.67;6.00;;;;;22.07;37.12;101770.28;5083528;27;45614;-73